sensor_id;sensor_type;location;lat;lon;timestamp;P1;durP1;ratioP1;P2;durP2;ratioP2
35943;SDS011;22029;54.774;9.434;2023-06-14T00:15:56;0.10;;;0.10;;
35943;SDS011;22029;54.774;9.434;2023-06-14T00:18:26;0.10;;;0.10;;
35943;SDS011;22029;54.774;9.434;2023-06-14T00:20:57;0.10;;;0.10;;
35943;SDS011;22029;54.774;9.434;2023-06-14T00:23:26;0.10;;;0.10;;
35943;SDS011;22029;54.774;9.434;2023-06-14T00:25:56;0.13;;;0.13;;
35943;SDS011;22029;54.774;9.434;2023-06-14T00:28:25;0.10;;;0.10;;
35943;SDS011;22029;54.774;9.434;2023-06-14T00:30:56;0.10;;;0.10;;
35943;SDS011;22029;54.774;9.434;2023-06-14T00:33:28;0.10;;;0.10;;
35943;SDS011;22029;54.774;9.434;2023-06-14T00:35:58;0.10;;;0.10;;
35943;SDS011;22029;54.774;9.434;2023-06-14T00:38:27;0.10;;;0.10;;
35943;SDS011;22029;54.774;9.434;2023-06-14T00:40:57;0.10;;;0.10;;
35943;SDS011;22029;54.774;9.434;2023-06-14T00:43:26;0.20;;;0.20;;
35943;SDS011;22029;54.774;9.434;2023-06-14T00:45:57;0.10;;;0.10;;
35943;SDS011;22029;54.774;9.434;2023-06-14T00:48:27;0.10;;;0.10;;
35943;SDS011;22029;54.774;9.434;2023-06-14T00:50:58;0.10;;;0.10;;
35943;SDS011;22029;54.774;9.434;2023-06-14T00:53:32;0.10;;;0.10;;
35943;SDS011;22029;54.774;9.434;2023-06-14T00:56:03;0.10;;;0.10;;
35943;SDS011;22029;54.774;9.434;2023-06-14T00:58:33;0.10;;;0.10;;
35943;SDS011;22029;54.774;9.434;2023-06-14T01:01:04;0.10;;;0.10;;
35943;SDS011;22029;54.774;9.434;2023-06-14T01:03:34;0.20;;;0.20;;
35943;SDS011;22029;54.774;9.434;2023-06-14T01:06:09;0.20;;;0.20;;
35943;SDS011;22029;54.774;9.434;2023-06-14T01:09:01;0.20;;;0.20;;
35943;SDS011;22029;54.774;9.434;2023-06-14T01:11:33;0.13;;;0.13;;
35943;SDS011;22029;54.774;9.434;2023-06-14T01:14:05;0.10;;;0.10;;
35943;SDS011;22029;54.774;9.434;2023-06-14T01:16:37;0.10;;;0.10;;
35943;SDS011;22029;54.774;9.434;2023-06-14T01:19:08;0.10;;;0.10;;
35943;SDS011;22029;54.774;9.434;2023-06-14T01:21:40;0.10;;;0.10;;
35943;SDS011;22029;54.774;9.434;2023-06-14T01:24:11;0.10;;;0.10;;
35943;SDS011;22029;54.774;9.434;2023-06-14T01:26:41;0.10;;;0.10;;
35943;SDS011;22029;54.774;9.434;2023-06-14T01:29:13;0.10;;;0.10;;
35943;SDS011;22029;54.774;9.434;2023-06-14T01:31:45;0.10;;;0.10;;
35943;SDS011;22029;54.774;9.434;2023-06-14T01:34:15;0.10;;;0.10;;
35943;SDS011;22029;54.774;9.434;2023-06-14T01:36:44;0.10;;;0.10;;
35943;SDS011;22029;54.774;9.434;2023-06-14T01:39:15;0.10;;;0.10;;
35943;SDS011;22029;54.774;9.434;2023-06-14T01:41:46;0.10;;;0.10;;
35943;SDS011;22029;54.774;9.434;2023-06-14T01:44:18;0.10;;;0.10;;
35943;SDS011;22029;54.774;9.434;2023-06-14T01:46:49;0.10;;;0.10;;
35943;SDS011;22029;54.774;9.434;2023-06-14T01:49:18;0.20;;;0.20;;
35943;SDS011;22029;54.774;9.434;2023-06-14T01:51:49;0.20;;;0.20;;
35943;SDS011;22029;54.774;9.434;2023-06-14T01:54:20;0.10;;;0.10;;
35943;SDS011;22029;54.774;9.434;2023-06-14T01:56:50;0.20;;;0.20;;
35943;SDS011;22029;54.774;9.434;2023-06-14T01:59:19;0.13;;;0.13;;
35943;SDS011;22029;54.774;9.434;2023-06-14T02:01:49;0.10;;;0.10;;
35943;SDS011;22029;54.774;9.434;2023-06-14T02:04:19;0.10;;;0.10;;
35943;SDS011;22029;54.774;9.434;2023-06-14T02:06:49;0.10;;;0.10;;
35943;SDS011;22029;54.774;9.434;2023-06-14T02:09:19;0.20;;;0.20;;
35943;SDS011;22029;54.774;9.434;2023-06-14T02:11:49;0.17;;;0.17;;
35943;SDS011;22029;54.774;9.434;2023-06-14T02:14:19;0.10;;;0.10;;
35943;SDS011;22029;54.774;9.434;2023-06-14T02:16:49;0.10;;;0.10;;
35943;SDS011;22029;54.774;9.434;2023-06-14T02:19:19;0.17;;;0.17;;
35943;SDS011;22029;54.774;9.434;2023-06-14T02:21:48;0.10;;;0.10;;
35943;SDS011;22029;54.774;9.434;2023-06-14T02:24:19;0.10;;;0.10;;
35943;SDS011;22029;54.774;9.434;2023-06-14T02:26:51;0.20;;;0.20;;
35943;SDS011;22029;54.774;9.434;2023-06-14T02:29:22;0.17;;;0.17;;
35943;SDS011;22029;54.774;9.434;2023-06-14T02:31:51;0.10;;;0.10;;
35943;SDS011;22029;54.774;9.434;2023-06-14T02:34:21;0.10;;;0.10;;
35943;SDS011;22029;54.774;9.434;2023-06-14T02:36:51;0.10;;;0.10;;
35943;SDS011;22029;54.774;9.434;2023-06-14T02:39:22;0.10;;;0.10;;
35943;SDS011;22029;54.774;9.434;2023-06-14T02:41:51;0.10;;;0.10;;
35943;SDS011;22029;54.774;9.434;2023-06-14T02:44:24;0.10;;;0.10;;
35943;SDS011;22029;54.774;9.434;2023-06-14T02:46:55;0.10;;;0.10;;
35943;SDS011;22029;54.774;9.434;2023-06-14T02:49:26;0.10;;;0.10;;
35943;SDS011;22029;54.774;9.434;2023-06-14T02:51:55;0.10;;;0.10;;
35943;SDS011;22029;54.774;9.434;2023-06-14T02:54:26;0.10;;;0.10;;
35943;SDS011;22029;54.774;9.434;2023-06-14T02:56:56;0.10;;;0.10;;
35943;SDS011;22029;54.774;9.434;2023-06-14T02:59:25;0.10;;;0.10;;
35943;SDS011;22029;54.774;9.434;2023-06-14T03:01:56;0.10;;;0.10;;
35943;SDS011;22029;54.774;9.434;2023-06-14T03:04:26;0.10;;;0.10;;
35943;SDS011;22029;54.774;9.434;2023-06-14T03:06:57;0.20;;;0.20;;
35943;SDS011;22029;54.774;9.434;2023-06-14T03:09:29;0.10;;;0.10;;
35943;SDS011;22029;54.774;9.434;2023-06-14T03:12:00;0.10;;;0.10;;
35943;SDS011;22029;54.774;9.434;2023-06-14T03:14:30;0.10;;;0.10;;
35943;SDS011;22029;54.774;9.434;2023-06-14T03:17:00;0.10;;;0.10;;
35943;SDS011;22029;54.774;9.434;2023-06-14T03:19:30;0.10;;;0.10;;
35943;SDS011;22029;54.774;9.434;2023-06-14T03:22:00;0.10;;;0.10;;
35943;SDS011;22029;54.774;9.434;2023-06-14T03:24:33;0.10;;;0.10;;
35943;SDS011;22029;54.774;9.434;2023-06-14T03:27:09;0.10;;;0.10;;
35943;SDS011;22029;54.774;9.434;2023-06-14T03:29:43;0.10;;;0.10;;
35943;SDS011;22029;54.774;9.434;2023-06-14T03:32:12;0.10;;;0.10;;
35943;SDS011;22029;54.774;9.434;2023-06-14T03:34:44;0.10;;;0.10;;
35943;SDS011;22029;54.774;9.434;2023-06-14T03:37:18;0.00;;;0.00;;
35943;SDS011;22029;54.774;9.434;2023-06-14T03:39:50;0.10;;;0.10;;
35943;SDS011;22029;54.774;9.434;2023-06-14T03:42:22;0.10;;;0.10;;
35943;SDS011;22029;54.774;9.434;2023-06-14T03:44:53;0.10;;;0.10;;
35943;SDS011;22029;54.774;9.434;2023-06-14T03:47:24;0.10;;;0.10;;
35943;SDS011;22029;54.774;9.434;2023-06-14T03:49:55;0.10;;;0.10;;
35943;SDS011;22029;54.774;9.434;2023-06-14T03:52:24;0.10;;;0.10;;
35943;SDS011;22029;54.774;9.434;2023-06-14T03:54:55;0.10;;;0.10;;
35943;SDS011;22029;54.774;9.434;2023-06-14T03:57:32;0.10;;;0.10;;
35943;SDS011;22029;54.774;9.434;2023-06-14T04:00:04;0.10;;;0.10;;
35943;SDS011;22029;54.774;9.434;2023-06-14T04:02:40;0.10;;;0.10;;
35943;SDS011;22029;54.774;9.434;2023-06-14T04:05:12;0.10;;;0.10;;
35943;SDS011;22029;54.774;9.434;2023-06-14T04:07:47;0.10;;;0.10;;
35943;SDS011;22029;54.774;9.434;2023-06-14T04:10:19;0.10;;;0.10;;
35943;SDS011;22029;54.774;9.434;2023-06-14T04:12:49;0.10;;;0.10;;
35943;SDS011;22029;54.774;9.434;2023-06-14T04:15:19;0.03;;;0.03;;
35943;SDS011;22029;54.774;9.434;2023-06-14T04:17:52;0.10;;;0.10;;
35943;SDS011;22029;54.774;9.434;2023-06-14T04:20:26;0.00;;;0.00;;
35943;SDS011;22029;54.774;9.434;2023-06-14T04:22:56;0.10;;;0.10;;
35943;SDS011;22029;54.774;9.434;2023-06-14T04:25:30;0.10;;;0.10;;
35943;SDS011;22029;54.774;9.434;2023-06-14T04:28:00;0.10;;;0.10;;
35943;SDS011;22029;54.774;9.434;2023-06-14T04:30:30;0.10;;;0.10;;
35943;SDS011;22029;54.774;9.434;2023-06-14T04:33:00;0.10;;;0.10;;
35943;SDS011;22029;54.774;9.434;2023-06-14T04:35:33;0.00;;;0.00;;
35943;SDS011;22029;54.774;9.434;2023-06-14T04:38:03;0.10;;;0.10;;
35943;SDS011;22029;54.774;9.434;2023-06-14T04:40:39;0.10;;;0.10;;
35943;SDS011;22029;54.774;9.434;2023-06-14T04:43:13;0.10;;;0.10;;
35943;SDS011;22029;54.774;9.434;2023-06-14T04:45:47;0.10;;;0.10;;
35943;SDS011;22029;54.774;9.434;2023-06-14T04:48:17;0.00;;;0.00;;
35943;SDS011;22029;54.774;9.434;2023-06-14T04:50:48;0.10;;;0.10;;
35943;SDS011;22029;54.774;9.434;2023-06-14T04:54:41;0.00;;;0.00;;
35943;SDS011;22029;54.774;9.434;2023-06-14T04:58:37;0.00;;;0.00;;
35943;SDS011;22029;54.774;9.434;2023-06-14T05:26:06;0.00;;;0.00;;
35943;SDS011;22029;54.774;9.434;2023-06-14T05:28:36;0.10;;;0.10;;
35943;SDS011;22029;54.774;9.434;2023-06-14T05:31:05;0.00;;;0.00;;
35943;SDS011;22029;54.774;9.434;2023-06-14T05:33:35;0.00;;;0.00;;
35943;SDS011;22029;54.774;9.434;2023-06-14T05:36:05;0.00;;;0.00;;
35943;SDS011;22029;54.774;9.434;2023-06-14T05:38:35;0.00;;;0.00;;
35943;SDS011;22029;54.774;9.434;2023-06-14T05:41:06;0.10;;;0.10;;
35943;SDS011;22029;54.774;9.434;2023-06-14T05:43:35;0.10;;;0.10;;
35943;SDS011;22029;54.774;9.434;2023-06-14T05:46:05;0.00;;;0.00;;
35943;SDS011;22029;54.774;9.434;2023-06-14T05:48:35;0.10;;;0.10;;
35943;SDS011;22029;54.774;9.434;2023-06-14T05:51:04;0.00;;;0.00;;
35943;SDS011;22029;54.774;9.434;2023-06-14T05:53:36;0.00;;;0.00;;
35943;SDS011;22029;54.774;9.434;2023-06-14T05:56:07;0.00;;;0.00;;
35943;SDS011;22029;54.774;9.434;2023-06-14T05:58:36;0.00;;;0.00;;
35943;SDS011;22029;54.774;9.434;2023-06-14T06:01:06;0.00;;;0.00;;
35943;SDS011;22029;54.774;9.434;2023-06-14T06:03:36;0.00;;;0.00;;
35943;SDS011;22029;54.774;9.434;2023-06-14T06:06:05;0.00;;;0.00;;
35943;SDS011;22029;54.774;9.434;2023-06-14T06:08:35;0.00;;;0.00;;
35943;SDS011;22029;54.774;9.434;2023-06-14T06:11:07;0.00;;;0.00;;
35943;SDS011;22029;54.774;9.434;2023-06-14T06:13:39;0.00;;;0.00;;
35943;SDS011;22029;54.774;9.434;2023-06-14T06:16:09;0.00;;;0.00;;
35943;SDS011;22029;54.774;9.434;2023-06-14T06:18:38;0.00;;;0.00;;
35943;SDS011;22029;54.774;9.434;2023-06-14T06:21:11;0.00;;;0.00;;
35943;SDS011;22029;54.774;9.434;2023-06-14T06:23:40;0.00;;;0.00;;
35943;SDS011;22029;54.774;9.434;2023-06-14T06:26:11;0.00;;;0.00;;
35943;SDS011;22029;54.774;9.434;2023-06-14T06:28:41;0.00;;;0.00;;
35943;SDS011;22029;54.774;9.434;2023-06-14T06:31:10;0.00;;;0.00;;
35943;SDS011;22029;54.774;9.434;2023-06-14T06:33:40;0.00;;;0.00;;
35943;SDS011;22029;54.774;9.434;2023-06-14T06:36:10;0.00;;;0.00;;
35943;SDS011;22029;54.774;9.434;2023-06-14T06:38:39;0.00;;;0.00;;
35943;SDS011;22029;54.774;9.434;2023-06-14T06:41:09;0.00;;;0.00;;
35943;SDS011;22029;54.774;9.434;2023-06-14T06:43:40;0.00;;;0.00;;
35943;SDS011;22029;54.774;9.434;2023-06-14T06:46:10;0.00;;;0.00;;
35943;SDS011;22029;54.774;9.434;2023-06-14T06:48:40;0.00;;;0.00;;
35943;SDS011;22029;54.774;9.434;2023-06-14T06:51:09;0.00;;;0.00;;
35943;SDS011;22029;54.774;9.434;2023-06-14T06:53:41;0.00;;;0.00;;
35943;SDS011;22029;54.774;9.434;2023-06-14T06:56:16;0.00;;;0.00;;
35943;SDS011;22029;54.774;9.434;2023-06-14T06:58:48;0.00;;;0.00;;
35943;SDS011;22029;54.774;9.434;2023-06-14T07:01:18;0.00;;;0.00;;
35943;SDS011;22029;54.774;9.434;2023-06-14T07:03:48;0.00;;;0.00;;
35943;SDS011;22029;54.774;9.434;2023-06-14T07:06:17;0.00;;;0.00;;
35943;SDS011;22029;54.774;9.434;2023-06-14T07:08:47;0.00;;;0.00;;
35943;SDS011;22029;54.774;9.434;2023-06-14T07:11:17;0.00;;;0.00;;
35943;SDS011;22029;54.774;9.434;2023-06-14T07:13:48;0.00;;;0.00;;
35943;SDS011;22029;54.774;9.434;2023-06-14T07:16:18;0.00;;;0.00;;
35943;SDS011;22029;54.774;9.434;2023-06-14T07:18:48;0.00;;;0.00;;
35943;SDS011;22029;54.774;9.434;2023-06-14T07:21:18;0.00;;;0.00;;
35943;SDS011;22029;54.774;9.434;2023-06-14T07:23:47;0.00;;;0.00;;
35943;SDS011;22029;54.774;9.434;2023-06-14T07:26:17;0.00;;;0.00;;
35943;SDS011;22029;54.774;9.434;2023-06-14T07:28:47;0.00;;;0.00;;
35943;SDS011;22029;54.774;9.434;2023-06-14T07:31:18;0.00;;;0.00;;
35943;SDS011;22029;54.774;9.434;2023-06-14T07:33:48;0.00;;;0.00;;
35943;SDS011;22029;54.774;9.434;2023-06-14T07:36:18;0.00;;;0.00;;
35943;SDS011;22029;54.774;9.434;2023-06-14T07:38:47;0.00;;;0.00;;
35943;SDS011;22029;54.774;9.434;2023-06-14T07:46:20;0.00;;;0.00;;
35943;SDS011;22029;54.774;9.434;2023-06-14T07:50:09;0.00;;;0.00;;
35943;SDS011;22029;54.774;9.434;2023-06-14T14:32:52;1.50;;;1.50;;
35943;SDS011;22029;54.774;9.434;2023-06-14T14:35:22;1.40;;;1.40;;
35943;SDS011;22029;54.774;9.434;2023-06-14T14:37:53;1.50;;;1.50;;
35943;SDS011;22029;54.774;9.434;2023-06-14T14:40:23;1.50;;;1.50;;
35943;SDS011;22029;54.774;9.434;2023-06-14T14:42:55;1.60;;;1.60;;
35943;SDS011;22029;54.774;9.434;2023-06-14T14:45:24;1.63;;;1.63;;
35943;SDS011;22029;54.774;9.434;2023-06-14T14:47:55;1.60;;;1.60;;
35943;SDS011;22029;54.774;9.434;2023-06-14T14:50:25;1.48;;;1.48;;
35943;SDS011;22029;54.774;9.434;2023-06-14T14:52:55;1.40;;;1.40;;
35943;SDS011;22029;54.774;9.434;2023-06-14T14:55:24;1.50;;;1.50;;
35943;SDS011;22029;54.774;9.434;2023-06-14T14:57:54;1.35;;;1.35;;
35943;SDS011;22029;54.774;9.434;2023-06-14T15:00:24;1.38;;;1.38;;
35943;SDS011;22029;54.774;9.434;2023-06-14T15:02:53;1.40;;;1.40;;
35943;SDS011;22029;54.774;9.434;2023-06-14T15:05:24;1.40;;;1.40;;
35943;SDS011;22029;54.774;9.434;2023-06-14T15:07:54;1.40;;;1.40;;
35943;SDS011;22029;54.774;9.434;2023-06-14T15:10:24;1.40;;;1.40;;
35943;SDS011;22029;54.774;9.434;2023-06-14T15:12:54;1.60;;;1.60;;
35943;SDS011;22029;54.774;9.434;2023-06-14T15:15:23;1.60;;;1.60;;
35943;SDS011;22029;54.774;9.434;2023-06-14T15:17:53;1.70;;;1.70;;
35943;SDS011;22029;54.774;9.434;2023-06-14T15:20:24;1.67;;;1.67;;
35943;SDS011;22029;54.774;9.434;2023-06-14T15:22:54;1.48;;;1.48;;
35943;SDS011;22029;54.774;9.434;2023-06-14T15:25:26;1.60;;;1.60;;
35943;SDS011;22029;54.774;9.434;2023-06-14T15:27:56;1.60;;;1.60;;
35943;SDS011;22029;54.774;9.434;2023-06-14T15:30:27;1.60;;;1.60;;
35943;SDS011;22029;54.774;9.434;2023-06-14T15:32:56;1.40;;;1.40;;
35943;SDS011;22029;54.774;9.434;2023-06-14T15:35:28;1.60;;;1.60;;
35943;SDS011;22029;54.774;9.434;2023-06-14T15:37:58;1.50;;;1.50;;
35943;SDS011;22029;54.774;9.434;2023-06-14T15:40:27;1.40;;;1.40;;
35943;SDS011;22029;54.774;9.434;2023-06-14T15:42:57;1.50;;;1.50;;
35943;SDS011;22029;54.774;9.434;2023-06-14T15:45:38;1.50;;;1.50;;
35943;SDS011;22029;54.774;9.434;2023-06-14T15:48:11;1.50;;;1.50;;
35943;SDS011;22029;54.774;9.434;2023-06-14T15:50:47;1.70;;;1.70;;
35943;SDS011;22029;54.774;9.434;2023-06-14T15:53:17;1.60;;;1.60;;
35943;SDS011;22029;54.774;9.434;2023-06-14T15:55:47;1.70;;;1.70;;
35943;SDS011;22029;54.774;9.434;2023-06-14T15:58:16;1.80;;;1.80;;
35943;SDS011;22029;54.774;9.434;2023-06-14T16:00:46;1.70;;;1.70;;
35943;SDS011;22029;54.774;9.434;2023-06-14T16:03:16;1.70;;;1.70;;
35943;SDS011;22029;54.774;9.434;2023-06-14T16:05:45;1.73;;;1.73;;
35943;SDS011;22029;54.774;9.434;2023-06-14T16:08:17;1.77;;;1.77;;
35943;SDS011;22029;54.774;9.434;2023-06-14T16:11:06;1.80;;;1.80;;
35943;SDS011;22029;54.774;9.434;2023-06-14T16:13:36;1.83;;;1.83;;
35943;SDS011;22029;54.774;9.434;2023-06-14T16:16:06;1.93;;;1.93;;
35943;SDS011;22029;54.774;9.434;2023-06-14T16:18:35;1.90;;;1.90;;
35943;SDS011;22029;54.774;9.434;2023-06-14T16:21:05;1.80;;;1.80;;
35943;SDS011;22029;54.774;9.434;2023-06-14T16:23:41;1.80;;;1.80;;
35943;SDS011;22029;54.774;9.434;2023-06-14T16:26:11;1.83;;;1.83;;
35943;SDS011;22029;54.774;9.434;2023-06-14T16:28:41;1.90;;;1.90;;
35943;SDS011;22029;54.774;9.434;2023-06-14T16:31:11;1.90;;;1.90;;
35943;SDS011;22029;54.774;9.434;2023-06-14T16:33:43;1.80;;;1.80;;
35943;SDS011;22029;54.774;9.434;2023-06-14T16:36:14;2.00;;;2.00;;
35943;SDS011;22029;54.774;9.434;2023-06-14T16:38:53;1.90;;;1.90;;
35943;SDS011;22029;54.774;9.434;2023-06-14T16:41:39;1.80;;;1.80;;
35943;SDS011;22029;54.774;9.434;2023-06-14T16:45:07;1.87;;;1.87;;
35943;SDS011;22029;54.774;9.434;2023-06-14T16:48:08;1.80;;;1.80;;
35943;SDS011;22029;54.774;9.434;2023-06-14T16:51:20;1.80;;;1.80;;
35943;SDS011;22029;54.774;9.434;2023-06-14T16:53:53;1.80;;;1.80;;
35943;SDS011;22029;54.774;9.434;2023-06-14T16:56:23;1.90;;;1.90;;
35943;SDS011;22029;54.774;9.434;2023-06-14T16:59:14;1.90;;;1.90;;
35943;SDS011;22029;54.774;9.434;2023-06-14T17:02:40;1.60;;;1.60;;
35943;SDS011;22029;54.774;9.434;2023-06-14T17:05:16;1.80;;;1.80;;
35943;SDS011;22029;54.774;9.434;2023-06-14T17:08:19;1.60;;;1.60;;
35943;SDS011;22029;54.774;9.434;2023-06-14T17:11:22;1.60;;;1.60;;
35943;SDS011;22029;54.774;9.434;2023-06-14T17:13:52;1.60;;;1.60;;
35943;SDS011;22029;54.774;9.434;2023-06-14T17:16:21;1.70;;;1.70;;
35943;SDS011;22029;54.774;9.434;2023-06-14T17:18:51;1.60;;;1.60;;
35943;SDS011;22029;54.774;9.434;2023-06-14T17:21:21;1.63;;;1.63;;
35943;SDS011;22029;54.774;9.434;2023-06-14T17:23:53;1.40;;;1.40;;
35943;SDS011;22029;54.774;9.434;2023-06-14T17:26:24;1.50;;;1.50;;
35943;SDS011;22029;54.774;9.434;2023-06-14T17:28:54;1.60;;;1.60;;
35943;SDS011;22029;54.774;9.434;2023-06-14T17:31:24;1.50;;;1.50;;
35943;SDS011;22029;54.774;9.434;2023-06-14T17:33:54;1.50;;;1.50;;
35943;SDS011;22029;54.774;9.434;2023-06-14T17:36:23;1.40;;;1.40;;
35943;SDS011;22029;54.774;9.434;2023-06-14T17:38:53;1.50;;;1.50;;
35943;SDS011;22029;54.774;9.434;2023-06-14T17:41:24;1.50;;;1.50;;
35943;SDS011;22029;54.774;9.434;2023-06-14T17:44:00;1.60;;;1.60;;
35943;SDS011;22029;54.774;9.434;2023-06-14T17:46:29;1.40;;;1.40;;
35943;SDS011;22029;54.774;9.434;2023-06-14T17:48:59;1.40;;;1.40;;
35943;SDS011;22029;54.774;9.434;2023-06-14T17:51:28;1.30;;;1.30;;
35943;SDS011;22029;54.774;9.434;2023-06-14T17:53:58;1.50;;;1.50;;
35943;SDS011;22029;54.774;9.434;2023-06-14T17:56:29;1.30;;;1.30;;
35943;SDS011;22029;54.774;9.434;2023-06-14T17:58:59;1.40;;;1.40;;
35943;SDS011;22029;54.774;9.434;2023-06-14T18:01:29;1.50;;;1.50;;
35943;SDS011;22029;54.774;9.434;2023-06-14T18:03:59;1.40;;;1.40;;
35943;SDS011;22029;54.774;9.434;2023-06-14T18:06:29;1.30;;;1.30;;
35943;SDS011;22029;54.774;9.434;2023-06-14T18:08:59;1.20;;;1.20;;
35943;SDS011;22029;54.774;9.434;2023-06-14T18:11:30;1.30;;;1.30;;
35943;SDS011;22029;54.774;9.434;2023-06-14T18:14:00;1.30;;;1.30;;
35943;SDS011;22029;54.774;9.434;2023-06-14T18:16:30;1.30;;;1.30;;
35943;SDS011;22029;54.774;9.434;2023-06-14T18:18:59;1.50;;;1.50;;
35943;SDS011;22029;54.774;9.434;2023-06-14T18:21:29;1.30;;;1.30;;
35943;SDS011;22029;54.774;9.434;2023-06-14T18:23:59;1.40;;;1.40;;
35943;SDS011;22029;54.774;9.434;2023-06-14T18:26:30;1.33;;;1.33;;
35943;SDS011;22029;54.774;9.434;2023-06-14T18:29:00;1.20;;;1.20;;
35943;SDS011;22029;54.774;9.434;2023-06-14T18:31:29;1.30;;;1.30;;
35943;SDS011;22029;54.774;9.434;2023-06-14T18:33:59;1.20;;;1.20;;
35943;SDS011;22029;54.774;9.434;2023-06-14T18:36:29;1.33;;;1.33;;
35943;SDS011;22029;54.774;9.434;2023-06-14T18:38:59;1.40;;;1.40;;
35943;SDS011;22029;54.774;9.434;2023-06-14T18:41:29;1.20;;;1.20;;
35943;SDS011;22029;54.774;9.434;2023-06-14T18:43:59;1.20;;;1.20;;
35943;SDS011;22029;54.774;9.434;2023-06-14T18:46:29;1.10;;;1.10;;
35943;SDS011;22029;54.774;9.434;2023-06-14T18:48:59;1.10;;;1.10;;
35943;SDS011;22029;54.774;9.434;2023-06-14T18:51:29;1.00;;;1.00;;
35943;SDS011;22029;54.774;9.434;2023-06-14T18:54:01;1.00;;;1.00;;
35943;SDS011;22029;54.774;9.434;2023-06-14T18:56:31;0.90;;;0.90;;
35943;SDS011;22029;54.774;9.434;2023-06-14T18:59:02;0.80;;;0.80;;
35943;SDS011;22029;54.774;9.434;2023-06-14T19:01:31;0.80;;;0.80;;
35943;SDS011;22029;54.774;9.434;2023-06-14T19:04:01;0.70;;;0.70;;
35943;SDS011;22029;54.774;9.434;2023-06-14T19:06:31;0.70;;;0.70;;
35943;SDS011;22029;54.774;9.434;2023-06-14T19:09:01;0.60;;;0.60;;
35943;SDS011;22029;54.774;9.434;2023-06-14T19:11:31;0.50;;;0.50;;
35943;SDS011;22029;54.774;9.434;2023-06-14T19:14:03;0.50;;;0.50;;
35943;SDS011;22029;54.774;9.434;2023-06-14T19:16:32;0.40;;;0.40;;
35943;SDS011;22029;54.774;9.434;2023-06-14T19:19:02;0.40;;;0.40;;
35943;SDS011;22029;54.774;9.434;2023-06-14T19:21:33;0.40;;;0.40;;
35943;SDS011;22029;54.774;9.434;2023-06-14T19:24:03;0.33;;;0.33;;
35943;SDS011;22029;54.774;9.434;2023-06-14T19:26:33;0.27;;;0.27;;
35943;SDS011;22029;54.774;9.434;2023-06-14T19:29:04;0.30;;;0.30;;
35943;SDS011;22029;54.774;9.434;2023-06-14T19:31:34;0.23;;;0.23;;
35943;SDS011;22029;54.774;9.434;2023-06-14T19:34:04;0.20;;;0.20;;
35943;SDS011;22029;54.774;9.434;2023-06-14T19:36:34;0.20;;;0.20;;
35943;SDS011;22029;54.774;9.434;2023-06-14T19:39:03;0.20;;;0.20;;
35943;SDS011;22029;54.774;9.434;2023-06-14T19:41:33;0.20;;;0.20;;
35943;SDS011;22029;54.774;9.434;2023-06-14T19:44:04;0.20;;;0.20;;
35943;SDS011;22029;54.774;9.434;2023-06-14T19:46:34;0.20;;;0.20;;
35943;SDS011;22029;54.774;9.434;2023-06-14T19:49:03;0.10;;;0.10;;
35943;SDS011;22029;54.774;9.434;2023-06-14T19:51:33;0.10;;;0.10;;
35943;SDS011;22029;54.774;9.434;2023-06-14T19:54:03;0.20;;;0.20;;
35943;SDS011;22029;54.774;9.434;2023-06-14T19:56:32;0.10;;;0.10;;
35943;SDS011;22029;54.774;9.434;2023-06-14T19:59:02;0.10;;;0.10;;
35943;SDS011;22029;54.774;9.434;2023-06-14T20:01:33;0.10;;;0.10;;
35943;SDS011;22029;54.774;9.434;2023-06-14T20:04:03;0.10;;;0.10;;
35943;SDS011;22029;54.774;9.434;2023-06-14T20:06:33;0.10;;;0.10;;
35943;SDS011;22029;54.774;9.434;2023-06-14T20:09:03;0.10;;;0.10;;
35943;SDS011;22029;54.774;9.434;2023-06-14T20:11:39;0.10;;;0.10;;
35943;SDS011;22029;54.774;9.434;2023-06-14T20:14:09;0.10;;;0.10;;
35943;SDS011;22029;54.774;9.434;2023-06-14T20:16:41;0.10;;;0.10;;
35943;SDS011;22029;54.774;9.434;2023-06-14T20:19:10;0.10;;;0.10;;
35943;SDS011;22029;54.774;9.434;2023-06-14T20:21:40;0.10;;;0.10;;
35943;SDS011;22029;54.774;9.434;2023-06-14T20:24:10;0.10;;;0.10;;
35943;SDS011;22029;54.774;9.434;2023-06-14T20:26:40;0.10;;;0.10;;
35943;SDS011;22029;54.774;9.434;2023-06-14T20:29:09;0.10;;;0.10;;
35943;SDS011;22029;54.774;9.434;2023-06-14T20:31:40;0.10;;;0.10;;
35943;SDS011;22029;54.774;9.434;2023-06-14T20:34:11;0.10;;;0.10;;
35943;SDS011;22029;54.774;9.434;2023-06-14T20:36:40;0.10;;;0.10;;
35943;SDS011;22029;54.774;9.434;2023-06-14T20:39:10;0.00;;;0.00;;
35943;SDS011;22029;54.774;9.434;2023-06-14T20:41:39;0.10;;;0.10;;
35943;SDS011;22029;54.774;9.434;2023-06-14T20:44:09;0.00;;;0.00;;
35943;SDS011;22029;54.774;9.434;2023-06-14T20:46:39;0.00;;;0.00;;
35943;SDS011;22029;54.774;9.434;2023-06-14T20:49:13;0.07;;;0.07;;
35943;SDS011;22029;54.774;9.434;2023-06-14T20:51:43;0.00;;;0.00;;
35943;SDS011;22029;54.774;9.434;2023-06-14T20:54:14;0.10;;;0.10;;
35943;SDS011;22029;54.774;9.434;2023-06-14T20:56:43;0.00;;;0.00;;
35943;SDS011;22029;54.774;9.434;2023-06-14T20:59:13;0.10;;;0.10;;
35943;SDS011;22029;54.774;9.434;2023-06-14T21:01:43;0.00;;;0.00;;
35943;SDS011;22029;54.774;9.434;2023-06-14T21:04:14;0.07;;;0.07;;
35943;SDS011;22029;54.774;9.434;2023-06-14T21:06:43;0.00;;;0.00;;
35943;SDS011;22029;54.774;9.434;2023-06-14T21:09:13;0.00;;;0.00;;
35943;SDS011;22029;54.774;9.434;2023-06-14T21:11:43;0.00;;;0.00;;
35943;SDS011;22029;54.774;9.434;2023-06-14T21:14:12;0.00;;;0.00;;
35943;SDS011;22029;54.774;9.434;2023-06-14T21:16:42;0.00;;;0.00;;
35943;SDS011;22029;54.774;9.434;2023-06-14T21:19:13;0.00;;;0.00;;
35943;SDS011;22029;54.774;9.434;2023-06-14T21:21:43;0.00;;;0.00;;
35943;SDS011;22029;54.774;9.434;2023-06-14T21:24:12;0.00;;;0.00;;
35943;SDS011;22029;54.774;9.434;2023-06-14T21:26:42;0.00;;;0.00;;
35943;SDS011;22029;54.774;9.434;2023-06-14T21:29:12;0.00;;;0.00;;
35943;SDS011;22029;54.774;9.434;2023-06-14T21:31:48;0.10;;;0.10;;
35943;SDS011;22029;54.774;9.434;2023-06-14T21:38:07;0.00;;;0.00;;
35943;SDS011;22029;54.774;9.434;2023-06-14T21:40:36;0.03;;;0.03;;
35943;SDS011;22029;54.774;9.434;2023-06-14T21:43:08;0.00;;;0.00;;
35943;SDS011;22029;54.774;9.434;2023-06-14T21:45:38;0.00;;;0.00;;
35943;SDS011;22029;54.774;9.434;2023-06-14T21:48:07;0.00;;;0.00;;
35943;SDS011;22029;54.774;9.434;2023-06-14T21:50:37;0.10;;;0.10;;
35943;SDS011;22029;54.774;9.434;2023-06-14T21:53:08;0.00;;;0.00;;
35943;SDS011;22029;54.774;9.434;2023-06-14T21:55:38;0.00;;;0.00;;
35943;SDS011;22029;54.774;9.434;2023-06-14T21:58:07;0.00;;;0.00;;
35943;SDS011;22029;54.774;9.434;2023-06-14T22:00:37;0.03;;;0.03;;
35943;SDS011;22029;54.774;9.434;2023-06-14T22:03:07;0.00;;;0.00;;
35943;SDS011;22029;54.774;9.434;2023-06-14T22:10:24;0.00;;;0.00;;
35943;SDS011;22029;54.774;9.434;2023-06-14T22:14:18;0.00;;;0.00;;
35943;SDS011;22029;54.774;9.434;2023-06-14T22:18:08;0.10;;;0.10;;
35943;SDS011;22029;54.774;9.434;2023-06-14T22:31:58;0.00;;;0.00;;
35943;SDS011;22029;54.774;9.434;2023-06-14T22:34:28;0.10;;;0.10;;
35943;SDS011;22029;54.774;9.434;2023-06-14T22:37:00;0.10;;;0.10;;
35943;SDS011;22029;54.774;9.434;2023-06-14T22:39:32;0.07;;;0.07;;
35943;SDS011;22029;54.774;9.434;2023-06-14T22:42:01;0.10;;;0.10;;
35943;SDS011;22029;54.774;9.434;2023-06-14T22:44:34;0.10;;;0.10;;
35943;SDS011;22029;54.774;9.434;2023-06-14T22:47:06;0.10;;;0.10;;
35943;SDS011;22029;54.774;9.434;2023-06-14T22:49:37;0.10;;;0.10;;
35943;SDS011;22029;54.774;9.434;2023-06-14T22:52:08;0.00;;;0.00;;
35943;SDS011;22029;54.774;9.434;2023-06-14T22:54:37;0.10;;;0.10;;
35943;SDS011;22029;54.774;9.434;2023-06-14T22:57:09;0.10;;;0.10;;
35943;SDS011;22029;54.774;9.434;2023-06-14T22:59:44;0.00;;;0.00;;
35943;SDS011;22029;54.774;9.434;2023-06-14T23:02:15;0.03;;;0.03;;
35943;SDS011;22029;54.774;9.434;2023-06-14T23:04:45;0.10;;;0.10;;